createdAt,value
2022-09-07T00:00:53.743Z,50.21
2022-09-07T00:03:21.442Z,49.88
2022-09-07T00:05:50.875Z,50.02
2022-09-07T00:08:20.587Z,50.50
2022-09-07T00:11:02.290Z,50.71
2022-09-07T00:13:32.895Z,50.49
2022-09-07T00:16:05.493Z,50.70
2022-09-07T00:18:33.498Z,50.37
2022-09-07T00:21:09.096Z,50.62
2022-09-07T00:23:38.503Z,50.67
2022-09-07T00:26:08.535Z,50.63
2022-09-07T00:28:37.297Z,50.46
2022-09-07T00:31:09.867Z,50.38
2022-09-07T00:33:37.457Z,50.63
2022-09-07T00:36:04.815Z,51.00
2022-09-07T00:38:32.241Z,50.85
2022-09-07T00:40:59.752Z,50.91
2022-09-07T00:43:33.697Z,51.10
2022-09-07T00:46:02.219Z,51.26
2022-09-07T00:48:46.295Z,51.45
2022-09-07T00:51:20.349Z,51.38
2022-09-07T00:53:55.713Z,51.36
2022-09-07T00:56:26.633Z,51.47
2022-09-07T00:58:53.885Z,51.29
2022-09-07T01:01:22.039Z,51.84
2022-09-07T01:03:52.001Z,51.80
2022-09-07T01:06:26.893Z,51.79
2022-09-07T01:08:56.726Z,51.88
2022-09-07T01:11:24.305Z,51.62
2022-09-07T01:13:54.130Z,51.85
2022-09-07T01:16:46.487Z,51.84
2022-09-07T01:19:39.308Z,52.11
2022-09-07T01:22:29.800Z,52.04
2022-09-07T01:25:09.645Z,51.99
2022-09-07T01:27:56.239Z,51.70
2022-09-07T01:30:24.566Z,52.15
2022-09-07T01:33:27.448Z,52.21
2022-09-07T01:36:04.075Z,52.11
2022-09-07T01:38:55.876Z,52.26
2022-09-07T01:41:33.193Z,52.45
2022-09-07T01:44:19.777Z,52.06
2022-09-07T01:47:20.921Z,52.31
2022-09-07T01:50:06.359Z,52.16
2022-09-07T01:52:47.602Z,51.88
2022-09-07T01:55:24.671Z,52.06
2022-09-07T01:58:13.746Z,52.22
2022-09-07T02:00:46.245Z,51.80
2022-09-07T02:03:25.379Z,52.21
2022-09-07T02:06:02.335Z,51.93
2022-09-07T02:08:38.108Z,51.70
2022-09-07T02:11:11.733Z,51.35
2022-09-07T02:13:59.375Z,51.77
2022-09-07T02:16:32.802Z,51.63
2022-09-07T02:19:05.569Z,51.83
2022-09-07T02:21:42.277Z,51.51
2022-09-07T02:24:43.623Z,51.66
2022-09-07T02:27:24.921Z,51.33
2022-09-07T02:29:52.384Z,50.92
2022-09-07T02:32:19.660Z,50.78
2022-09-07T02:34:47.113Z,50.81
2022-09-07T02:37:17.008Z,50.99
2022-09-07T02:39:44.599Z,50.73
2022-09-07T02:42:11.895Z,50.70
2022-09-07T02:44:41.503Z,50.98
2022-09-07T02:47:17.901Z,51.36
2022-09-07T02:50:01.772Z,51.27
2022-09-07T02:52:44.120Z,50.96
2022-09-07T02:55:32.645Z,51.39
2022-09-07T02:58:18.049Z,51.83
2022-09-07T03:00:56.837Z,52.60
2022-09-07T03:03:57.361Z,52.81
2022-09-07T03:06:31.253Z,52.95
2022-09-07T03:09:04.454Z,53.04
2022-09-07T03:11:32.301Z,53.02
2022-09-07T03:14:17.932Z,54.05
2022-09-07T03:16:50.963Z,53.41
2022-09-07T03:19:18.435Z,53.74
2022-09-07T03:21:46.047Z,54.05
2022-09-07T03:24:13.454Z,54.29
2022-09-07T03:26:45.304Z,54.24
2022-09-07T03:29:13.451Z,54.39
2022-09-07T03:31:41.080Z,54.32
2022-09-07T03:34:08.639Z,54.67
2022-09-07T03:36:36.244Z,54.92
2022-09-07T03:39:05.169Z,55.09
2022-09-07T03:41:32.418Z,55.30
2022-09-07T03:44:07.341Z,55.87
2022-09-07T03:46:35.501Z,55.24
2022-09-07T03:49:03.062Z,55.58
2022-09-07T03:51:31.227Z,55.49
2022-09-07T03:54:00.134Z,55.58
2022-09-07T03:56:27.539Z,55.69
2022-09-07T03:58:55.739Z,55.92
2022-09-07T04:01:25.655Z,56.11
2022-09-07T04:03:54.903Z,56.34
2022-09-07T04:06:23.582Z,55.80
2022-09-07T04:08:50.964Z,55.73
2022-09-07T04:11:19.301Z,55.52
2022-09-07T04:13:46.684Z,55.69
2022-09-07T04:16:17.362Z,55.65
2022-09-07T04:18:45.566Z,55.62
2022-09-07T04:21:14.055Z,55.39
2022-09-07T04:23:43.176Z,55.39
2022-09-07T04:26:34.305Z,55.29
2022-09-07T04:29:02.971Z,54.77
2022-09-07T04:31:31.236Z,54.50
2022-09-07T04:33:58.631Z,54.59
2022-09-07T04:36:26.094Z,54.60
2022-09-07T04:39:01.591Z,54.41
2022-09-07T04:41:31.286Z,54.34
2022-09-07T04:44:00.867Z,54.06
2022-09-07T04:46:34.264Z,54.07
2022-09-07T04:49:05.310Z,53.58
2022-09-07T04:51:33.394Z,53.45
2022-09-07T04:54:02.584Z,53.35
2022-09-07T04:56:30.707Z,53.29
2022-09-07T04:59:00.163Z,53.09
2022-09-07T05:01:28.400Z,52.60
2022-09-07T05:03:56.166Z,52.45
2022-09-07T05:06:24.339Z,52.50
2022-09-07T05:08:54.014Z,52.14
2022-09-07T05:11:28.400Z,52.06
2022-09-07T05:13:57.045Z,52.63
2022-09-07T05:16:25.989Z,51.60
2022-09-07T05:18:58.649Z,50.93
2022-09-07T05:21:28.613Z,50.79
2022-09-07T05:23:58.182Z,50.37
2022-09-07T05:26:28.577Z,50.17
2022-09-07T05:31:43.277Z,49.68
2022-09-07T05:36:58.628Z,49.21
2022-09-07T05:39:27.024Z,49.30
2022-09-07T05:41:54.409Z,48.71
2022-09-07T05:47:09.391Z,48.08
2022-09-07T05:49:36.627Z,47.69
2022-09-07T05:52:03.980Z,47.85
2022-09-07T05:54:31.265Z,47.90
2022-09-07T05:56:58.904Z,47.70
2022-09-07T05:59:26.419Z,47.10
2022-09-07T06:01:53.778Z,47.39
2022-09-07T06:04:21.285Z,46.61
2022-09-07T06:07:17.790Z,46.53
2022-09-07T06:12:24.190Z,46.17
2022-09-07T06:14:51.390Z,45.80
2022-09-07T06:17:18.669Z,45.69
2022-09-07T06:19:45.853Z,45.92
2022-09-07T06:22:13.810Z,44.96
2022-09-07T06:24:41.044Z,44.41
2022-09-07T06:27:08.479Z,44.75
2022-09-07T06:29:35.888Z,44.93
2022-09-07T06:34:50.777Z,44.73
2022-09-07T06:37:17.951Z,44.43
2022-09-07T06:39:45.311Z,44.06
2022-09-07T06:42:12.825Z,43.79
2022-09-07T06:44:43.983Z,43.74
2022-09-07T06:47:11.494Z,43.63
2022-09-07T06:49:38.693Z,43.04
2022-09-07T06:52:05.900Z,43.06
2022-09-07T06:57:20.776Z,42.62
2022-09-07T06:59:48.032Z,42.83
2022-09-07T07:02:15.360Z,42.60
2022-09-07T07:04:43.325Z,43.08
2022-09-07T07:07:14.167Z,42.39
2022-09-07T07:09:42.067Z,42.86
2022-09-07T07:12:10.971Z,42.66
2022-09-07T07:14:43.958Z,42.01
2022-09-07T07:17:12.874Z,41.58
2022-09-07T07:19:40.244Z,41.21
2022-09-07T07:22:36.003Z,41.11
2022-09-07T07:24:56.064Z,41.18
2022-09-07T07:27:23.315Z,40.15
2022-09-07T07:29:50.947Z,40.34
2022-09-07T07:32:18.446Z,40.26
2022-09-07T07:34:45.742Z,40.74
2022-09-07T07:37:12.895Z,39.87
2022-09-07T07:42:27.633Z,39.81
2022-09-07T07:47:43.300Z,40.06
2022-09-07T07:55:45.645Z,39.17
2022-09-07T07:58:13.104Z,38.88
2022-09-07T08:00:53.879Z,39.06
2022-09-07T08:03:23.722Z,39.25
2022-09-07T08:05:51.821Z,39.11
2022-09-07T08:08:22.113Z,38.82
2022-09-07T08:10:50.252Z,38.41
2022-09-07T08:13:19.376Z,38.67
2022-09-07T08:15:46.932Z,38.71
2022-09-07T08:18:16.480Z,38.57
2022-09-07T08:20:44.403Z,38.48
2022-09-07T08:23:12.033Z,37.84
2022-09-07T08:25:48.660Z,37.69
2022-09-07T08:28:15.899Z,37.89
2022-09-07T08:30:43.265Z,38.17
2022-09-07T08:33:10.389Z,37.94
2022-09-07T08:35:38.206Z,37.96
2022-09-07T08:38:05.513Z,37.74
2022-09-07T08:40:36.012Z,38.21
2022-09-07T08:43:22.038Z,38.34
2022-09-07T08:45:54.793Z,37.16
2022-09-07T08:48:31.766Z,37.24
2022-09-07T08:51:09.887Z,36.07
2022-09-07T08:53:46.445Z,36.47
2022-09-07T08:56:23.693Z,36.09
2022-09-07T08:58:56.178Z,36.06
2022-09-07T09:01:33.687Z,36.34
2022-09-07T09:04:18.689Z,36.68
2022-09-07T09:07:01.656Z,35.95
2022-09-07T09:10:07.392Z,36.73
2022-09-07T09:12:57.139Z,36.65
2022-09-07T09:15:32.154Z,36.83
2022-09-07T09:18:22.458Z,35.25
2022-09-07T09:20:58.777Z,34.68
2022-09-07T09:23:36.668Z,35.32
2022-09-07T09:26:14.559Z,35.14
2022-09-07T09:28:42.274Z,35.42
2022-09-07T09:31:26.841Z,34.93
2022-09-07T09:34:08.274Z,34.09
2022-09-07T09:36:42.828Z,34.92
2022-09-07T09:39:38.651Z,34.68
2022-09-07T09:42:12.483Z,34.34
2022-09-07T09:44:41.680Z,35.71
2022-09-07T09:47:30.272Z,35.03
2022-09-07T09:50:01.486Z,35.03
2022-09-07T09:52:45.151Z,34.97
2022-09-07T09:55:40.938Z,34.94
2022-09-07T10:01:34.992Z,35.20
2022-09-07T10:04:30.838Z,35.17
2022-09-07T10:07:05.581Z,35.44
2022-09-07T10:09:39.284Z,35.90
2022-09-07T10:12:08.963Z,34.39
2022-09-07T10:14:42.433Z,34.64
2022-09-07T10:17:19.383Z,34.01
2022-09-07T10:19:46.559Z,34.45
2022-09-07T10:22:36.067Z,34.09
2022-09-07T10:25:34.257Z,34.37
2022-09-07T10:28:11.599Z,34.78
2022-09-07T10:30:59.463Z,34.72
2022-09-07T10:37:01.340Z,34.97
2022-09-07T10:39:36.283Z,35.07
2022-09-07T10:42:09.384Z,34.83
2022-09-07T10:44:52.357Z,35.31
2022-09-07T10:47:25.596Z,34.81
2022-09-07T10:50:43.469Z,34.67
2022-09-07T10:53:40.632Z,34.92
2022-09-07T10:56:32.483Z,35.01
2022-09-07T11:00:07.439Z,35.27
2022-09-07T11:02:26.440Z,35.28
2022-09-07T11:05:11.987Z,35.06
2022-09-07T11:08:15.586Z,35.02
2022-09-07T11:10:51.836Z,34.88
2022-09-07T11:13:25.197Z,35.05
2022-09-07T11:16:02.037Z,34.97
2022-09-07T11:18:47.485Z,35.27
2022-09-07T11:21:56.028Z,35.18
2022-09-07T11:24:41.705Z,35.19
2022-09-07T11:27:38.952Z,35.00
2022-09-07T11:30:25.081Z,33.51
2022-09-07T11:33:03.769Z,34.79
2022-09-07T11:35:45.375Z,33.49
2022-09-07T11:38:37.797Z,34.28
2022-09-07T11:41:10.801Z,33.63
2022-09-07T11:43:46.619Z,33.05
2022-09-07T11:46:39.159Z,33.41
2022-09-07T11:49:32.829Z,33.05
2022-09-07T11:52:20.293Z,33.91
2022-09-07T11:54:57.258Z,33.38
2022-09-07T11:57:42.060Z,33.77
2022-09-07T12:00:20.264Z,33.82
2022-09-07T12:03:20.910Z,33.81
2022-09-07T12:05:49.678Z,34.00
2022-09-07T12:08:35.020Z,34.38
2022-09-07T12:11:08.414Z,33.97
2022-09-07T12:14:12.145Z,33.52
2022-09-07T12:16:59.099Z,34.25
2022-09-07T12:19:28.407Z,33.62
2022-09-07T12:21:58.182Z,34.36
2022-09-07T12:24:51.820Z,34.42
2022-09-07T12:27:22.226Z,34.45
2022-09-07T12:30:12.526Z,33.84
2022-09-07T12:32:57.700Z,33.87
2022-09-07T12:35:28.640Z,33.49
2022-09-07T12:38:03.916Z,33.73
2022-09-07T12:40:37.648Z,33.18
2022-09-07T12:43:17.024Z,32.35
2022-09-07T12:45:44.116Z,32.81
2022-09-07T12:48:11.976Z,32.25
2022-09-07T12:51:03.617Z,31.97
2022-09-07T12:53:57.572Z,32.19
2022-09-07T12:57:28.669Z,32.51
2022-09-07T13:00:12.286Z,32.67
2022-09-07T13:03:49.406Z,33.08
2022-09-07T13:05:58.825Z,33.34
2022-09-07T13:08:42.202Z,32.84
2022-09-07T13:11:38.289Z,32.90
2022-09-07T13:14:15.537Z,32.46
2022-09-07T13:20:18.060Z,32.67
2022-09-07T13:22:45.633Z,32.95
2022-09-07T13:25:24.028Z,33.20
2022-09-07T13:27:59.887Z,33.00
2022-09-07T13:30:48.759Z,32.98
2022-09-07T13:33:25.326Z,32.91
2022-09-07T13:35:57.064Z,32.95
2022-09-07T13:38:24.401Z,32.80
2022-09-07T13:40:54.838Z,33.00
2022-09-07T13:43:24.502Z,32.30
2022-09-07T13:45:54.879Z,32.02
2022-09-07T13:48:31.068Z,32.76
2022-09-07T13:51:10.535Z,32.72
2022-09-07T13:54:28.600Z,32.89
2022-09-07T13:57:35.231Z,33.04
2022-09-07T14:00:02.829Z,33.16
2022-09-07T14:02:34.924Z,33.08
2022-09-07T14:05:03.319Z,32.79
2022-09-07T14:07:31.713Z,33.01
2022-09-07T14:10:10.657Z,32.93
2022-09-07T14:13:08.464Z,32.88
2022-09-07T14:15:42.695Z,32.67
2022-09-07T14:18:29.608Z,32.75
2022-09-07T14:20:57.903Z,32.53
2022-09-07T14:23:32.316Z,32.63
2022-09-07T14:26:26.698Z,32.77
2022-09-07T14:28:57.305Z,32.60
2022-09-07T14:31:25.987Z,33.26
2022-09-07T14:33:56.920Z,33.10
2022-09-07T14:36:48.489Z,33.03
2022-09-07T14:39:18.675Z,33.06
2022-09-07T14:41:46.885Z,33.03
2022-09-07T14:44:31.841Z,32.80
2022-09-07T14:47:01.081Z,33.02
2022-09-07T14:49:28.896Z,33.10
2022-09-07T14:51:56.371Z,32.92
2022-09-07T14:54:33.227Z,32.85
2022-09-07T14:57:28.505Z,32.83
2022-09-07T14:59:57.380Z,32.90
2022-09-07T15:02:33.351Z,32.61
2022-09-07T15:05:23.425Z,32.34
2022-09-07T15:08:01.977Z,32.25
2022-09-07T15:10:35.656Z,32.40
2022-09-07T15:13:06.319Z,32.39
2022-09-07T15:15:41.350Z,32.50
2022-09-07T15:18:54.456Z,32.82
2022-09-07T15:21:23.742Z,32.72
2022-09-07T15:23:52.703Z,32.91
2022-09-07T15:29:18.632Z,32.64
2022-09-07T15:31:59.271Z,32.99
2022-09-07T15:34:28.879Z,32.98
2022-09-07T15:37:00.168Z,33.33
2022-09-07T15:39:30.219Z,33.72
2022-09-07T15:42:00.528Z,33.90
2022-09-07T15:44:45.742Z,34.62
2022-09-07T15:50:00.226Z,35.73
2022-09-07T15:52:28.136Z,36.30
2022-09-07T15:54:59.410Z,36.59
2022-09-07T16:00:15.353Z,37.19
2022-09-07T16:05:31.460Z,37.92
2022-09-07T16:11:05.089Z,38.60
2022-09-07T16:13:33.693Z,39.07
2022-09-07T16:16:02.267Z,39.29
2022-09-07T16:18:32.617Z,39.40
2022-09-07T16:21:12.210Z,40.28
2022-09-07T16:23:42.974Z,40.23
2022-09-07T16:26:12.072Z,40.00
2022-09-07T16:28:41.101Z,40.35
2022-09-07T16:31:15.361Z,40.22
2022-09-07T16:33:42.560Z,40.32
2022-09-07T16:36:14.540Z,40.98
2022-09-07T16:38:46.001Z,41.01
2022-09-07T16:41:26.960Z,41.28
2022-09-07T16:43:54.792Z,41.33
2022-09-07T16:46:35.494Z,41.52
2022-09-07T16:49:03.708Z,41.50
2022-09-07T16:51:30.843Z,41.38
2022-09-07T16:53:59.815Z,41.76
2022-09-07T16:56:29.530Z,41.76
2022-09-07T16:58:59.303Z,42.03
2022-09-07T17:01:32.924Z,41.82
2022-09-07T17:04:02.088Z,41.86
2022-09-07T17:06:31.446Z,41.86
2022-09-07T17:09:01.773Z,41.98
2022-09-07T17:11:34.763Z,42.54
2022-09-07T17:14:02.372Z,42.29
2022-09-07T17:16:32.466Z,42.47
2022-09-07T17:21:53.878Z,42.72
2022-09-07T17:24:21.404Z,42.55
2022-09-07T17:26:48.779Z,42.87
2022-09-07T17:29:16.036Z,42.85
2022-09-07T17:34:31.124Z,43.61
2022-09-07T17:37:00.528Z,43.48
2022-09-07T17:39:28.643Z,43.50
2022-09-07T17:41:56.031Z,44.18
2022-09-07T17:44:23.782Z,44.23
2022-09-07T17:46:51.641Z,44.56
2022-09-07T17:49:19.101Z,44.91
2022-09-07T17:51:46.838Z,44.89
2022-09-07T17:54:17.646Z,45.28
2022-09-07T17:56:47.752Z,45.51
2022-09-07T18:02:03.361Z,45.64
2022-09-07T18:04:31.604Z,45.93
2022-09-07T18:06:58.811Z,45.97
2022-09-07T18:09:26.136Z,45.92
2022-09-07T18:11:53.376Z,46.24
2022-09-07T18:14:20.846Z,46.38
2022-09-07T18:16:49.927Z,46.79
2022-09-07T18:19:18.304Z,46.60
2022-09-07T18:21:48.398Z,46.90
2022-09-07T18:24:21.594Z,47.96
2022-09-07T18:26:52.556Z,47.40
2022-09-07T18:29:37.521Z,47.81
2022-09-07T18:32:09.485Z,48.04
2022-09-07T18:34:40.648Z,47.88
2022-09-07T18:37:08.608Z,47.53
2022-09-07T18:39:36.062Z,47.73
2022-09-07T18:42:03.885Z,47.81
2022-09-07T18:47:27.841Z,47.81
2022-09-07T18:49:56.197Z,48.16
2022-09-07T18:55:10.887Z,48.08
2022-09-07T18:57:39.462Z,48.21
2022-09-07T19:00:17.902Z,48.76
2022-09-07T19:02:49.633Z,48.93
2022-09-07T19:08:04.764Z,49.22
2022-09-07T19:10:38.567Z,49.56
2022-09-07T19:13:05.972Z,49.26
2022-09-07T19:15:37.084Z,49.26
2022-09-07T19:18:06.220Z,49.40
2022-09-07T19:20:34.981Z,49.25
2022-09-07T19:23:03.491Z,49.25
2022-09-07T19:25:30.662Z,49.37
2022-09-07T19:27:58.110Z,49.74
2022-09-07T19:30:25.352Z,49.25
2022-09-07T19:32:52.655Z,49.27
2022-09-07T19:35:19.693Z,49.55
2022-09-07T19:37:48.643Z,49.71
2022-09-07T19:40:19.287Z,49.33
2022-09-07T19:42:47.009Z,49.58
2022-09-07T19:45:15.396Z,49.49
2022-09-07T19:47:42.916Z,49.67
2022-09-07T19:50:10.439Z,49.50
2022-09-07T19:52:37.833Z,49.92
2022-09-07T19:55:05.310Z,49.84
2022-09-07T19:57:33.252Z,49.78
2022-09-07T20:00:00.451Z,49.81
2022-09-07T20:02:27.910Z,50.02
2022-09-07T20:04:55.751Z,49.92
2022-09-07T20:07:23.481Z,49.70
2022-09-07T20:09:52.098Z,50.05
2022-09-07T20:12:19.589Z,49.93
2022-09-07T20:14:46.868Z,50.04
2022-09-07T20:17:14.020Z,49.90
2022-09-07T20:19:41.368Z,49.80
2022-09-07T20:22:08.860Z,49.80
2022-09-07T20:24:36.160Z,49.61
2022-09-07T20:27:03.531Z,49.44
2022-09-07T20:29:31.910Z,49.42
2022-09-07T20:32:00.602Z,49.06
2022-09-07T20:34:28.987Z,49.33
2022-09-07T20:36:57.073Z,49.30
2022-09-07T20:39:24.704Z,49.34
2022-09-07T20:41:52.099Z,49.42
2022-09-07T20:44:19.401Z,49.83
2022-09-07T20:46:46.844Z,50.02
2022-09-07T20:49:14.128Z,50.02
2022-09-07T20:51:42.507Z,50.07
2022-09-07T20:54:10.280Z,50.30
2022-09-07T20:56:39.130Z,50.60
2022-09-07T20:59:07.494Z,50.41
2022-09-07T21:01:35.883Z,50.33
2022-09-07T21:04:04.208Z,50.43
2022-09-07T21:06:31.726Z,50.38
2022-09-07T21:09:00.083Z,50.52
2022-09-07T21:11:31.527Z,50.68
2022-09-07T21:14:07.039Z,50.68
2022-09-07T21:16:35.422Z,50.51
2022-09-07T21:19:05.819Z,50.44
2022-09-07T21:21:41.783Z,50.55
2022-09-07T21:24:20.290Z,50.86
2022-09-07T21:26:49.009Z,51.08
2022-09-07T21:29:23.093Z,50.48
2022-09-07T21:31:52.489Z,50.53
2022-09-07T21:34:19.889Z,50.58
2022-09-07T21:36:47.507Z,50.74
2022-09-07T21:39:15.395Z,50.96
2022-09-07T21:41:43.977Z,50.75
2022-09-07T21:44:15.451Z,50.82
2022-09-07T21:46:43.490Z,50.77
2022-09-07T21:49:11.025Z,50.81
2022-09-07T21:51:38.669Z,50.59
2022-09-07T21:54:05.911Z,50.53
2022-09-07T21:56:33.542Z,50.19
2022-09-07T21:59:02.664Z,50.13
2022-09-07T22:01:31.606Z,49.98
2022-09-07T22:04:01.586Z,49.62
2022-09-07T22:06:30.006Z,49.40
2022-09-07T22:08:58.894Z,49.56
2022-09-07T22:11:28.962Z,49.65
2022-09-07T22:14:02.076Z,49.54
2022-09-07T22:16:30.719Z,49.20
2022-09-07T22:18:58.193Z,49.35
2022-09-07T22:21:28.322Z,49.45
2022-09-07T22:24:01.395Z,49.54
2022-09-07T22:26:35.254Z,49.92
2022-09-07T22:29:02.638Z,49.64
2022-09-07T22:31:32.847Z,50.05
2022-09-07T22:34:02.156Z,50.24
2022-09-07T22:36:35.329Z,50.15
2022-09-07T22:39:05.052Z,50.49
2022-09-07T22:41:34.892Z,50.67
2022-09-07T22:44:02.369Z,50.92
2022-09-07T22:46:31.758Z,50.98
2022-09-07T22:48:59.440Z,51.19
2022-09-07T22:51:27.740Z,51.27
2022-09-07T22:53:56.085Z,51.51
2022-09-07T22:56:26.753Z,51.79
2022-09-07T22:59:00.555Z,51.69
2022-09-07T23:01:29.200Z,51.42
2022-09-07T23:03:56.849Z,51.77
2022-09-07T23:06:36.248Z,51.72
2022-09-07T23:09:09.997Z,51.68
2022-09-07T23:11:37.299Z,51.86
2022-09-07T23:14:07.694Z,51.97
2022-09-07T23:16:35.150Z,51.43
2022-09-07T23:19:02.568Z,51.52
2022-09-07T23:21:30.415Z,51.68
2022-09-07T23:23:59.931Z,51.29
2022-09-07T23:26:29.389Z,51.67
2022-09-07T23:29:01.981Z,51.20
2022-09-07T23:31:31.271Z,50.84
2022-09-07T23:33:59.257Z,50.54
2022-09-07T23:36:26.942Z,50.75
2022-09-07T23:38:56.671Z,50.68
2022-09-07T23:41:27.766Z,50.85
2022-09-07T23:43:56.103Z,51.71
2022-09-07T23:46:23.656Z,52.17
2022-09-07T23:48:51.456Z,51.57
2022-09-07T23:51:23.452Z,52.38
2022-09-07T23:53:52.071Z,52.55
2022-09-07T23:56:20.301Z,53.32
2022-09-07T23:58:47.855Z,53.75
